AFL634 UHWW-VHHH
Flight info
| Callsign | AFL634 |
|---|---|
| Flight time | N/A |
| Altitude | 30100 |
| Route | SANAR2G SANAR B451 WQG DCT BIDIB A588 ISKEM/K0867S0980 A588 UDETI W202 DOBGA V68 TEKAM W172 FD W174 XDX DCT ELNEX A599 PLT W19 NOMAR W18 TAMOT |
| Aircraft | B738/M-SDE2E3FGHIRWXY/LB1 |
Departure
| Time | 2026-04-11 11:31 |
|---|---|
| Airport | Vladivostok International Airport (UHWW) |
Arrival
| Time | N/A |
|---|---|
| Airport | Hong Kong International Airport (VHHH) |
| Time | Latitude | Longitude | Altitude | Speed | Heading |
|---|---|---|---|---|---|
| 2026-04-11 10:40 | 43.39672 | 132.16347 | 60 ft | 0 kts | 149° |
| 2026-04-11 11:15 | 43.39673 | 132.16345 | 55 ft | 1 kts | 149° |
| 2026-04-11 11:15 | 43.39685 | 132.16334 | 55 ft | 2 kts | 149° |
| 2026-04-11 11:15 | 43.39699 | 132.16324 | 55 ft | 2 kts | 149° |
| 2026-04-11 11:15 | 43.39713 | 132.16313 | 54 ft | 2 kts | 149° |
| 2026-04-11 11:16 | 43.39727 | 132.16303 | 54 ft | 2 kts | 169° |
| 2026-04-11 11:16 | 43.39744 | 132.16304 | 53 ft | 2 kts | 195° |
| 2026-04-11 11:16 | 43.39759 | 132.16316 | 53 ft | 2 kts | 233° |
| 2026-04-11 11:16 | 43.39765 | 132.16338 | 52 ft | 2 kts | 268° |
| 2026-04-11 11:17 | 43.39762 | 132.16359 | 52 ft | 2 kts | 300° |
| 2026-04-11 11:17 | 43.39754 | 132.16379 | 52 ft | 2 kts | 320° |
| 2026-04-11 11:17 | 43.39740 | 132.16385 | 52 ft | 2 kts | 6° |
| 2026-04-11 11:17 | 43.39727 | 132.16380 | 53 ft | 1 kts | 9° |
| 2026-04-11 11:18 | 43.39715 | 132.16373 | 53 ft | 2 kts | 31° |
| 2026-04-11 11:18 | 43.39705 | 132.16365 | 54 ft | 0 kts | 25° |
| 2026-04-11 11:22 | 43.39706 | 132.16367 | 54 ft | 2 kts | 22° |
| 2026-04-11 11:22 | 43.39751 | 132.16357 | 52 ft | 8 kts | 340° |
| 2026-04-11 11:23 | 43.39757 | 132.16354 | 52 ft | 2 kts | 344° |
| 2026-04-11 11:24 | 43.39780 | 132.16356 | 51 ft | 10 kts | 15° |
| 2026-04-11 11:24 | 43.39824 | 132.16435 | 48 ft | 10 kts | 63° |
| 2026-04-11 11:24 | 43.39847 | 132.16495 | 46 ft | 6 kts | 60° |
| 2026-04-11 11:25 | 43.39872 | 132.16551 | 44 ft | 7 kts | 58° |
| 2026-04-11 11:25 | 43.39895 | 132.16606 | 43 ft | 7 kts | 62° |
| 2026-04-11 11:25 | 43.39927 | 132.16685 | 41 ft | 8 kts | 60° |
| 2026-04-11 11:25 | 43.39928 | 132.16685 | 41 ft | 8 kts | 60° |
| 2026-04-11 11:26 | 43.39935 | 132.16704 | 41 ft | 9 kts | 60° |
| 2026-04-11 11:26 | 43.39963 | 132.16763 | 40 ft | 11 kts | 55° |
| 2026-04-11 11:26 | 43.39970 | 132.16780 | 40 ft | 12 kts | 62° |
| 2026-04-11 11:27 | 43.39988 | 132.16826 | 40 ft | 13 kts | 62° |
| 2026-04-11 11:27 | 43.40009 | 132.16882 | 38 ft | 16 kts | 62° |
| 2026-04-11 11:27 | 43.40065 | 132.17020 | 35 ft | 13 kts | 58° |
| 2026-04-11 11:27 | 43.40107 | 132.17088 | 34 ft | 9 kts | 8° |
| 2026-04-11 11:28 | 43.40167 | 132.17044 | 33 ft | 8 kts | 326° |
| 2026-04-11 11:28 | 43.40205 | 132.17009 | 32 ft | 7 kts | 327° |
| 2026-04-11 11:28 | 43.40261 | 132.16966 | 31 ft | 11 kts | 333° |
| 2026-04-11 11:28 | 43.40335 | 132.16916 | 31 ft | 2 kts | 333° |
| 2026-04-11 11:29 | 43.40364 | 132.16896 | 31 ft | 12 kts | 333° |
| 2026-04-11 11:29 | 43.40406 | 132.16862 | 30 ft | 4 kts | 322° |
| 2026-04-11 11:29 | 43.40429 | 132.16824 | 31 ft | 6 kts | 291° |
| 2026-04-11 11:30 | 43.40420 | 132.16768 | 31 ft | 5 kts | 242° |
| 2026-04-11 11:30 | 43.40362 | 132.16612 | 32 ft | 49 kts | 242° |
| 2026-04-11 11:30 | 43.40062 | 132.15865 | 47 ft | 123 kts | 241° |
| 2026-04-11 11:30 | 43.39549 | 132.14610 | 71 ft | 175 kts | 244° |
| 2026-04-11 11:31 | 43.38960 | 132.13161 | 576 ft | 179 kts | 246° |
| 2026-04-11 11:31 | 43.38376 | 132.11693 | 1473 ft | 178 kts | 250° |
| 2026-04-11 11:31 | 43.37790 | 132.10188 | 2129 ft | 187 kts | 251° |
| 2026-04-11 11:31 | 43.37130 | 132.08505 | 2603 ft | 211 kts | 250° |
| 2026-04-11 11:32 | 43.36395 | 132.06683 | 3249 ft | 226 kts | 250° |
| 2026-04-11 11:32 | 43.35606 | 132.04744 | 3917 ft | 241 kts | 250° |
| 2026-04-11 11:32 | 43.34767 | 132.02679 | 4556 ft | 256 kts | 250° |
| 2026-04-11 11:32 | 43.34070 | 132.00476 | 5421 ft | 254 kts | 260° |
| 2026-04-11 11:33 | 43.33579 | 131.98096 | 6322 ft | 256 kts | 264° |
| 2026-04-11 11:34 | 43.31572 | 131.88686 | 9737 ft | 273 kts | 260° |
| 2026-04-11 11:34 | 43.31050 | 131.86410 | 10397 ft | 281 kts | 260° |
| 2026-04-11 11:34 | 43.30582 | 131.84340 | 10832 ft | 292 kts | 260° |
| 2026-04-11 11:34 | 43.29930 | 131.81450 | 11394 ft | 307 kts | 259° |
| 2026-04-11 11:35 | 43.29262 | 131.78513 | 11940 ft | 320 kts | 259° |
| 2026-04-11 11:35 | 43.28550 | 131.75389 | 12421 ft | 335 kts | 259° |
| 2026-04-11 11:35 | 43.27835 | 131.72263 | 12835 ft | 350 kts | 258° |
| 2026-04-11 11:35 | 43.27088 | 131.68996 | 13263 ft | 365 kts | 258° |
| 2026-04-11 11:36 | 43.26320 | 131.65645 | 13787 ft | 375 kts | 258° |
| 2026-04-11 11:36 | 43.25536 | 131.62242 | 14521 ft | 378 kts | 258° |
| 2026-04-11 11:36 | 43.24741 | 131.58801 | 15264 ft | 383 kts | 258° |
| 2026-04-11 11:36 | 43.23936 | 131.55312 | 16033 ft | 385 kts | 258° |
| 2026-04-11 11:37 | 43.23122 | 131.51773 | 16664 ft | 391 kts | 259° |
| 2026-04-11 11:37 | 43.22355 | 131.48200 | 17287 ft | 394 kts | 262° |
| 2026-04-11 11:37 | 43.21880 | 131.44563 | 17945 ft | 392 kts | 271° |
| 2026-04-11 11:37 | 43.21808 | 131.40832 | 18723 ft | 389 kts | 277° |
| 2026-04-11 11:38 | 43.21963 | 131.37187 | 19413 ft | 388 kts | 281° |
| 2026-04-11 11:38 | 43.22221 | 131.33499 | 20002 ft | 392 kts | 281° |
| 2026-04-11 11:38 | 43.22519 | 131.29755 | 20678 ft | 393 kts | 282° |
| 2026-04-11 11:38 | 43.22813 | 131.26065 | 21285 ft | 396 kts | 282° |
| 2026-04-11 11:39 | 43.23107 | 131.22308 | 21829 ft | 400 kts | 282° |
| 2026-04-11 11:39 | 43.23386 | 131.18538 | 22500 ft | 400 kts | 281° |
| 2026-04-11 11:39 | 43.23620 | 131.14728 | 23135 ft | 401 kts | 281° |
| 2026-04-11 11:39 | 43.23812 | 131.10948 | 23736 ft | 402 kts | 281° |
| 2026-04-11 11:40 | 43.23993 | 131.07101 | 24182 ft | 406 kts | 280° |
| 2026-04-11 11:40 | 43.24166 | 131.03233 | 24704 ft | 409 kts | 280° |
| 2026-04-11 11:40 | 43.24342 | 130.99329 | 25115 ft | 412 kts | 281° |
| 2026-04-11 11:40 | 43.24516 | 130.95424 | 25712 ft | 412 kts | 280° |
| 2026-04-11 11:41 | 43.24693 | 130.91481 | 26099 ft | 416 kts | 281° |
| 2026-04-11 11:41 | 43.24868 | 130.87563 | 26687 ft | 413 kts | 281° |
| 2026-04-11 11:41 | 43.25040 | 130.83661 | 27249 ft | 410 kts | 281° |
| 2026-04-11 11:41 | 43.25210 | 130.79794 | 27804 ft | 407 kts | 281° |
| 2026-04-11 11:42 | 43.25386 | 130.75891 | 28021 ft | 413 kts | 281° |
| 2026-04-11 11:42 | 43.25560 | 130.71979 | 28637 ft | 408 kts | 281° |
| 2026-04-11 11:42 | 43.25728 | 130.68120 | 29140 ft | 406 kts | 281° |
| 2026-04-11 11:42 | 43.25898 | 130.64235 | 29527 ft | 407 kts | 281° |
| 2026-04-11 11:43 | 43.26070 | 130.60355 | 29807 ft | 410 kts | 281° |
| 2026-04-11 11:43 | 43.26241 | 130.56473 | 29848 ft | 409 kts | 281° |
| 2026-04-11 11:43 | 43.26295 | 130.55211 | 29855 ft | 408 kts | 281° |